Almunecar, Spain
Current Conditions -  °F | °C
As of 8:00 AM on Sunday 23 Nov 2014 (Local Time) from LEGR Reporting Station
Few Clouds Few Clouds  
Wind Chill: 59°   Ceiling: Unl
Heat Index: 59°   Visibility: 6mi
Dew Point: 48°   Wind: 2mph
Humidity: 67%   Direction: NA
Pressure: 29.85"   Gusts: NA
Location:  36.73°N, 3.69°W
Report Text: LEGR 230700Z VRB02KT 9000 FEW090 15/09 Q1011
Loading
Personal Weather Stations






























Interactive Weather Map New forecast layout! Learn more

10-Day Weather Forecast

Advertisements
Track Severe Weather on mobile